Time;durP1;ratioP1;P1;durP2;ratioP2;P2;SDS_P1;SDS_P2;PMS_P1;PMS_P2;Temp;Humidity;BMP_temperature;BMP_pressure;BME280_temperature;BME280_humidity;BME280_pressure;Samples;Min_cycle;Max_cycle;Signal;HPM_P1;HPM_P2
2023/01/29 00:01:24;;;;;;;19.13;8.53;;;;;;;-141.97;100.00;47880.44;5074448;28;20469;-85
2023/01/29 00:03:51;;;;;;;19.83;9.47;;;;;;;-141.97;100.00;47830.47;5074594;28;20165;-84
2023/01/29 00:06:16;;;;;;;19.67;10.07;;;;;;;-141.97;100.00;47901.59;5074211;28;20215;-85
2023/01/29 00:08:42;;;;;;;14.67;6.00;;;;;;;-141.97;100.00;47868.91;5074217;28;20468;-84
2023/01/29 00:11:08;;;;;;;21.13;10.03;;;;;;;-141.97;100.00;47820.84;5074092;28;20168;-84
2023/01/29 00:13:34;;;;;;;19.20;9.40;;;;;;;-141.97;100.00;47868.91;5073508;28;20164;-84
2023/01/29 00:16:00;;;;;;;20.43;9.97;;;;;;;-141.97;100.00;47897.75;5073963;28;20413;-84
2023/01/29 00:18:26;;;;;;;23.90;10.47;;;;;;;-141.97;100.00;47903.50;5074236;28;20222;-84
2023/01/29 00:20:52;;;;;;;20.27;8.90;;;;;;;-141.97;100.00;47924.66;5073938;28;20406;-84
2023/01/29 00:23:18;;;;;;;18.67;9.33;;;;;;;-141.97;100.00;47880.44;5074029;28;20470;-84
2023/01/29 00:25:44;;;;;;;18.20;8.43;;;;;;;-141.97;100.00;47857.38;5074193;28;20618;-84
2023/01/29 00:28:09;;;;;;;19.93;9.80;;;;;;;-141.97;100.00;47803.56;5074059;28;20483;-84
2023/01/29 00:30:36;;;;;;;19.90;9.40;;;;;;;-141.97;100.00;47880.44;5056294;28;20454;-84
2023/01/29 00:33:02;;;;;;;17.33;7.57;;;;;;;-141.97;100.00;47815.09;5057380;28;20617;-84
2023/01/29 00:35:27;;;;;;;18.63;8.30;;;;;;;-141.97;100.00;47926.56;5073987;28;20423;-84
2023/01/29 00:37:57;;;;;;;19.40;9.60;;;;;;;-141.97;100.00;47884.28;5073688;28;20405;-84
2023/01/29 00:40:24;;;;;;;16.07;8.47;;;;;;;-141.97;100.00;47911.19;5073706;28;20188;-84
2023/01/29 00:45:35;;;;;;;14.53;7.83;;;;;;;-141.97;100.00;47899.66;5073857;28;20464;-84
2023/01/29 00:48:01;;;;;;;17.07;8.93;;;;;;;-141.97;100.00;47949.66;5073449;28;20423;-84
2023/01/29 00:50:27;;;;;;;15.20;7.87;;;;;;;-141.97;100.00;47795.88;5073419;28;20399;-84
2023/01/29 00:52:53;;;;;;;16.07;8.27;;;;;;;-141.97;100.00;47865.06;5073693;28;20399;-84
2023/01/29 00:55:19;;;;;;;17.37;8.00;;;;;;;-141.97;100.00;47893.91;5073405;28;20165;-84
2023/01/29 00:57:45;;;;;;;15.80;7.97;;;;;;;-141.97;100.00;47940.03;5073574;28;20891;-84
2023/01/29 01:00:15;;;;;;;17.10;8.43;;;;;;;-141.97;100.00;47876.59;5073246;28;20663;-84
2023/01/29 01:05:25;;;;;;;18.03;8.93;;;;;;;-141.97;100.00;47899.66;5073205;28;20520;-84
2023/01/29 01:07:53;;;;;;;15.23;7.80;;;;;;;-141.97;100.00;47851.59;5073404;28;20879;-84
2023/01/29 01:10:25;;;;;;;18.33;9.60;;;;;;;-141.97;100.00;47876.59;5073038;28;20169;-84
2023/01/29 01:12:57;;;;;;;17.07;7.77;;;;;;;-141.97;100.00;47842.00;5073205;28;20447;-84
2023/01/29 01:15:25;;;;;;;18.07;8.37;;;;;;;-141.97;100.00;47849.69;5073369;28;20397;-84
2023/01/29 01:17:53;;;;;;;17.73;8.37;;;;;;;-141.97;100.00;47911.19;5073196;28;20434;-84
2023/01/29 01:20:18;;;;;;;19.77;9.33;;;;;;;-141.97;100.00;47865.06;5072594;28;20449;-84
2023/01/29 01:22:44;;;;;;;22.50;10.43;;;;;;;-141.97;100.00;47884.28;5073069;28;20433;-84
2023/01/29 01:25:09;;;;;;;19.40;7.57;;;;;;;-141.97;100.00;47905.44;5072781;28;20299;-84
2023/01/29 01:27:39;;;;;;;20.97;10.07;;;;;;;-141.97;100.00;47868.91;5072766;28;20161;-84
2023/01/29 01:30:12;;;;;;;18.63;9.40;;;;;;;-141.97;100.00;47795.88;5072942;28;20168;-84
2023/01/29 01:32:38;;;;;;;19.60;10.30;;;;;;;-141.97;100.00;47880.44;5073556;28;20398;-84
2023/01/29 01:35:04;;;;;;;21.57;9.70;;;;;;;-141.97;100.00;47842.00;5072913;28;20502;-84
2023/01/29 01:37:30;;;;;;;18.93;8.60;;;;;;;-141.97;100.00;47861.22;5072499;28;20716;-84
2023/01/29 01:39:57;;;;;;;19.27;10.40;;;;;;;-141.97;100.00;47907.34;5054485;28;20287;-84
2023/01/29 01:42:28;;;;;;;15.80;8.27;;;;;;;-141.97;100.00;47897.75;5072657;28;20157;-84
2023/01/29 01:45:03;;;;;;;18.23;7.97;;;;;;;-141.97;100.00;47872.75;5072926;28;20404;-84
2023/01/29 01:47:45;;;;;;;14.23;7.33;;;;;;;-141.97;100.00;47928.50;5072314;28;20783;-84
2023/01/29 01:50:25;;;;;;;20.27;9.17;;;;;;;-141.97;100.00;47865.06;5072493;28;20492;-84
2023/01/29 01:52:55;;;;;;;16.60;7.47;;;;;;;-141.97;100.00;47878.53;5072321;28;20512;-84
2023/01/29 01:55:25;;;;;;;17.47;8.13;;;;;;;-141.97;100.00;47888.13;5072028;28;20478;-84
2023/01/29 01:57:58;;;;;;;14.03;6.80;;;;;;;-141.97;100.00;47895.81;5071947;28;20911;-84
2023/01/29 02:00:24;;;;;;;13.93;6.80;;;;;;;-141.97;100.00;47861.22;5071906;28;20457;-84
2023/01/29 02:11:19;;;;;;;19.37;9.37;;;;;;;-141.97;100.00;47903.50;5072169;28;20406;-84
2023/01/29 02:13:45;;;;;;;19.03;8.27;;;;;;;-141.97;100.00;47893.91;5071804;28;20422;-84
2023/01/29 02:16:10;;;;;;;15.80;7.30;;;;;;;-141.97;100.00;47903.50;5071618;28;20163;-83
2023/01/29 02:18:36;;;;;;;18.47;9.00;;;;;;;-141.97;100.00;47918.88;5072242;28;20164;-83
2023/01/29 02:21:32;;;;;;;19.63;9.90;;;;;;;-141.97;100.00;47901.59;5072588;28;20239;-84
2023/01/29 02:24:05;;;;;;;19.30;10.67;;;;;;;-141.97;100.00;47891.97;5054043;28;20840;-84
2023/01/29 02:26:54;;;;;;;21.17;10.77;;;;;;;-141.97;100.00;47907.34;5071695;28;20395;-84
2023/01/29 02:30:01;;;;;;;22.77;10.97;;;;;;;-141.97;100.00;47901.59;5071880;28;20425;-84
2023/01/29 02:32:57;;;;;;;18.00;9.30;;;;;;;-141.97;100.00;47899.66;5010077;28;20817;-85
2023/01/29 02:35:45;;;;;;;23.77;12.33;;;;;;;-141.97;100.00;47893.91;4951110;28;20428;-85
2023/01/29 02:38:45;;;;;;;26.07;12.00;;;;;;;-141.97;100.00;47899.66;4951451;29;20428;-85
2023/01/29 02:41:37;;;;;;;24.80;11.80;;;;;;;-141.97;100.00;47880.44;4894476;29;20465;-85
2023/01/29 02:44:14;;;;;;;22.47;11.30;;;;;;;-141.97;100.00;47897.75;4894387;29;20430;-84
2023/01/29 02:46:49;;;;;;;20.93;9.43;;;;;;;-141.97;100.00;47918.88;4894248;29;20434;-84
2023/01/29 02:49:43;;;;;;;21.77;10.57;;;;;;;-141.97;100.00;47916.97;4894656;29;20505;-84
2023/01/29 02:52:17;;;;;;;22.27;10.30;;;;;;;-141.97;100.00;47888.13;4894152;29;20848;-84
2023/01/29 02:55:01;;;;;;;21.07;10.67;;;;;;;-141.97;100.00;47918.88;4894553;29;20828;-84
2023/01/29 02:57:32;;;;;;;22.73;10.73;;;;;;;-141.97;100.00;47874.69;4894205;29;20432;-84
2023/01/29 03:00:10;;;;;;;23.87;11.40;;;;;;;-141.97;100.00;47882.38;4894556;29;20897;-84
2023/01/29 03:02:58;;;;;;;20.20;11.00;;;;;;;-141.97;100.00;47888.13;4894624;29;20426;-84
2023/01/29 03:05:36;;;;;;;21.83;11.20;;;;;;;-141.97;100.00;47830.47;4875603;29;20974;-84
2023/01/29 03:08:06;;;;;;;23.13;10.83;;;;;;;-141.97;100.00;47878.53;4876162;29;20530;-84
2023/01/29 03:10:54;;;;;;;21.17;10.37;;;;;;;-141.97;100.00;47895.81;4894601;29;20471;-84
2023/01/29 03:13:29;;;;;;;23.17;10.33;;;;;;;-141.97;100.00;47893.91;4927368;29;20433;-84
2023/01/29 03:16:02;;;;;;;20.80;9.70;;;;;;;-141.97;100.00;47884.28;4940615;29;20496;-84
2023/01/29 03:18:34;;;;;;;22.57;10.97;;;;;;;-141.97;100.00;47851.59;4990363;28;20478;-83
2023/01/29 03:21:48;;;;;;;19.57;9.90;;;;;;;-141.97;100.00;47890.06;5001105;28;20418;-83
2023/01/29 03:32:09;;;;;;;17.20;7.87;;;;;;;-141.97;100.00;47899.66;4990682;28;20632;-84
2023/01/29 03:34:48;;;;;;;20.83;10.20;;;;;;;-141.97;100.00;47884.28;4990592;28;20581;-83
2023/01/29 03:37:41;;;;;;;13.97;7.00;;;;;;;-141.97;100.00;47838.16;4989923;28;20954;-83
2023/01/29 03:40:08;;;;;;;20.33;8.97;;;;;;;-141.97;100.00;47934.25;4990498;28;20446;-83
2023/01/29 03:42:43;;;;;;;18.43;9.40;;;;;;;-141.97;100.00;47818.94;5048455;28;20922;-83
2023/01/29 03:45:41;;;;;;;17.87;7.50;;;;;;;-141.97;100.00;47891.97;5086971;28;20415;-83
2023/01/29 03:48:34;;;;;;;13.03;6.50;;;;;;;-141.97;100.00;47922.72;4982242;28;20538;-83
2023/01/29 03:51:05;;;;;;;18.23;8.80;;;;;;;-141.97;100.00;47924.66;4924374;29;20418;-84
2023/01/29 03:53:39;;;;;;;16.93;7.97;;;;;;;-141.97;100.00;47865.06;4917725;29;20438;-84
2023/01/29 03:56:13;;;;;;;15.93;7.63;;;;;;;-141.97;100.00;47884.28;4916874;29;20513;-83
2023/01/29 03:58:49;;;;;;;19.53;9.00;;;;;;;-141.97;100.00;47888.13;4918608;29;20947;-83
2023/01/29 04:01:23;;;;;;;16.70;7.63;;;;;;;-141.97;100.00;47820.84;4940324;29;20461;-83
2023/01/29 04:04:07;;;;;;;18.30;8.60;;;;;;;-141.97;100.00;47899.66;4930029;29;20515;-83
2023/01/29 04:06:36;;;;;;;18.53;8.33;;;;;;;-141.97;100.00;47930.41;4917125;29;20532;-82
2023/01/29 04:09:06;;;;;;;17.87;9.00;;;;;;;-141.97;100.00;47909.28;4916092;29;20426;-83
2023/01/29 04:11:35;;;;;;;25.10;13.57;;;;;;;-141.97;100.00;47855.44;4916100;29;20969;-83
2023/01/29 04:14:01;;;;;;;21.20;11.53;;;;;;;-141.97;100.00;47941.94;4915938;29;20504;-83
2023/01/29 04:16:33;;;;;;;21.87;10.10;;;;;;;-141.97;100.00;47880.44;4916020;29;20947;-83
2023/01/29 04:18:59;;;;;;;24.47;11.80;;;;;;;-141.97;100.00;47872.75;4915666;29;20214;-82
2023/01/29 04:21:25;;;;;;;18.30;9.60;;;;;;;-141.97;100.00;47861.22;4915804;29;21059;-82
2023/01/29 04:23:51;;;;;;;19.33;10.30;;;;;;;-141.97;100.00;47888.13;4934885;28;20677;-82
2023/01/29 04:26:27;;;;;;;21.37;11.17;;;;;;;-141.97;100.00;47876.59;4992403;28;20461;-84
2023/01/29 04:29:33;;;;;;;19.07;10.50;;;;;;;-141.97;100.00;47820.84;5066195;28;20189;-83
2023/01/29 04:32:22;;;;;;;17.93;9.27;;;;;;;-141.97;100.00;47903.50;5073822;28;20471;-82
2023/01/29 04:34:55;;;;;;;14.87;8.53;;;;;;;-141.97;100.00;47857.38;5073535;28;20411;-82
2023/01/29 04:37:43;;;;;;;18.20;9.47;;;;;;;-141.97;100.00;47872.75;5073680;28;20407;-83
2023/01/29 04:40:38;;;;;;;20.87;9.53;;;;;;;-141.97;100.00;47888.13;5073748;28;20443;-84
2023/01/29 04:43:12;;;;;;;20.30;10.10;;;;;;;-141.97;100.00;47909.28;5073513;28;20477;-82
2023/01/29 04:46:04;;;;;;;17.70;8.53;;;;;;;-141.97;100.00;47888.13;5074000;28;20407;-82
2023/01/29 04:48:57;;;;;;;22.43;11.40;;;;;;;-141.97;100.00;47901.59;5074343;28;20421;-82
2023/01/29 04:51:50;;;;;;;20.63;9.63;;;;;;;-141.97;100.00;47924.66;5074329;28;20440;-82
2023/01/29 04:54:27;;;;;;;16.37;8.30;;;;;;;-141.97;100.00;47888.13;5073446;28;20500;-82
2023/01/29 04:57:01;;;;;;;18.03;8.53;;;;;;;-141.97;100.00;47843.91;5073172;28;20403;-83
2023/01/29 04:59:32;;;;;;;18.50;9.00;;;;;;;-141.97;100.00;47884.28;5073193;28;20442;-83
2023/01/29 05:02:01;;;;;;;19.83;10.20;;;;;;;-141.97;100.00;47918.88;5074022;28;20387;-83
2023/01/29 05:04:31;;;;;;;15.87;8.47;;;;;;;-141.97;100.00;47847.75;5073498;28;20511;-83
2023/01/29 05:07:00;;;;;;;13.87;7.73;;;;;;;-141.97;100.00;47880.44;5073376;28;20387;-84
2023/01/29 05:09:25;;;;;;;17.10;8.13;;;;;;;-141.97;100.00;47888.13;5073295;28;20431;-83
2023/01/29 05:11:51;;;;;;;16.03;7.80;;;;;;;-141.97;100.00;47901.59;5073327;28;20867;-83
2023/01/29 05:14:19;;;;;;;17.73;8.37;;;;;;;-141.97;100.00;47888.13;5073380;28;20165;-83
2023/01/29 05:16:50;;;;;;;21.73;11.60;;;;;;;-141.97;100.00;47870.81;5072972;28;20411;-82
2023/01/29 05:19:16;;;;;;;22.40;11.27;;;;;;;-141.97;100.00;47901.59;5072804;28;21023;-82
2023/01/29 05:21:48;;;;;;;24.87;12.43;;;;;;;-141.97;100.00;47888.13;5072554;28;20403;-83
2023/01/29 05:24:15;;;;;;;24.30;11.57;;;;;;;-141.97;100.00;47916.97;5073005;28;20224;-83
2023/01/29 05:29:27;;;;;;;25.00;12.50;;;;;;;-141.97;100.00;47907.34;5073209;28;20406;-83
2023/01/29 05:31:52;;;;;;;24.57;12.40;;;;;;;-141.97;100.00;47899.66;5073255;28;20411;-83
2023/01/29 05:34:18;;;;;;;28.77;13.33;;;;;;;-141.97;100.00;47876.59;5072825;28;20168;-83
2023/01/29 05:36:43;;;;;;;27.63;13.77;;;;;;;-141.97;100.00;47861.22;5072789;28;20204;-83
2023/01/29 05:39:09;;;;;;;26.40;11.97;;;;;;;-141.97;100.00;47890.06;5073266;28;20271;-82
2023/01/29 05:41:34;;;;;;;23.07;10.73;;;;;;;-141.97;100.00;47903.50;5073232;28;20173;-83
2023/01/29 05:43:59;;;;;;;21.17;10.57;;;;;;;-141.97;100.00;47895.81;5073025;28;20693;-83
2023/01/29 05:46:25;;;;;;;23.77;11.47;;;;;;;-141.97;100.00;47811.25;5072799;28;20259;-84
2023/01/29 05:48:53;;;;;;;23.80;11.17;;;;;;;-141.97;100.00;47772.78;5072533;28;20168;-84
2023/01/29 05:51:18;;;;;;;26.83;13.80;;;;;;;-141.97;100.00;47822.78;5072514;28;20173;-84
2023/01/29 05:53:44;;;;;;;24.17;11.03;;;;;;;-141.97;100.00;47888.13;5072445;28;20414;-84
2023/01/29 05:56:09;;;;;;;23.83;10.87;;;;;;;-141.97;100.00;47907.34;5072688;28;20171;-84
2023/01/29 05:58:35;;;;;;;24.20;11.13;;;;;;;-141.97;100.00;47903.50;5072846;28;20165;-84
2023/01/29 06:01:12;;;;;;;22.07;10.10;;;;;;;-141.97;100.00;47888.13;5072166;28;20196;-84
2023/01/29 06:03:37;;;;;;;23.03;9.97;;;;;;;-141.97;100.00;47853.53;5072369;28;20160;-85
2023/01/29 06:06:02;;;;;;;22.00;9.70;;;;;;;-141.97;100.00;47949.66;5072197;28;20408;-84
2023/01/29 06:08:28;;;;;;;20.73;9.83;;;;;;;-141.97;100.00;47878.53;5071954;28;20223;-85
2023/01/29 06:10:53;;;;;;;20.23;9.20;;;;;;;-141.97;100.00;47920.81;5071860;28;20168;-86
2023/01/29 06:13:18;;;;;;;28.17;13.10;;;;;;;-141.97;100.00;47915.03;5073001;28;20562;-84
2023/01/29 06:15:44;;;;;;;22.83;11.13;;;;;;;-141.97;100.00;47903.50;5072117;28;20179;-82
2023/01/29 06:18:09;;;;;;;28.47;13.80;;;;;;;-141.97;100.00;47895.81;5071834;28;20160;-83
2023/01/29 06:20:36;;;;;;;33.23;13.77;;;;;;;-141.97;100.00;47901.59;5072469;28;20280;-85
2023/01/29 06:23:01;;;;;;;34.57;16.53;;;;;;;-141.97;100.00;47901.59;5071838;28;20226;-84
2023/01/29 06:25:26;;;;;;;25.00;11.60;;;;;;;-141.97;100.00;47891.97;5055709;28;20439;-84
2023/01/29 06:27:52;;;;;;;21.17;10.30;;;;;;;-141.97;100.00;47934.25;5083617;28;20204;-84
2023/01/29 06:30:17;;;;;;;26.53;12.33;;;;;;;-141.97;100.00;47861.22;5092386;28;20183;-84
2023/01/29 06:32:42;;;;;;;34.97;18.93;;;;;;;-141.97;100.00;47880.44;5074923;28;20172;-83
2023/01/29 06:35:09;;;;;;;17.20;9.20;;;;;;;-141.97;100.00;47874.69;5072121;28;20167;-85
2023/01/29 06:37:35;;;;;;;19.43;9.97;;;;;;;-141.97;100.00;47840.06;5053803;28;20176;-84
2023/01/29 06:40:01;;;;;;;24.67;13.00;;;;;;;-141.97;100.00;47878.53;5054429;28;20457;-84
2023/01/29 06:42:26;;;;;;;46.80;20.73;;;;;;;-141.97;100.00;47865.06;5072313;28;20179;-86
2023/01/29 06:44:55;;;;;;;25.73;11.17;;;;;;;-141.97;100.00;47884.28;5073169;28;20247;-84
2023/01/29 06:47:22;;;;;;;27.10;13.87;;;;;;;-141.97;100.00;47926.56;5073180;28;20287;-86
2023/01/29 06:49:48;;;;;;;32.10;12.13;;;;;;;-141.97;100.00;47943.88;5054099;28;20411;-84
2023/01/29 06:52:13;;;;;;;22.90;11.60;;;;;;;-141.97;100.00;47916.97;5053430;28;20415;-86
2023/01/29 06:54:39;;;;;;;21.37;10.03;;;;;;;-141.97;100.00;47899.66;5071972;28;20504;-83
2023/01/29 06:57:04;;;;;;;17.47;7.97;;;;;;;-141.97;100.00;47880.44;5072629;28;20177;-83
2023/01/29 06:59:30;;;;;;;16.33;7.77;;;;;;;-141.97;100.00;47884.28;5056001;28;20211;-84
2023/01/29 07:01:55;;;;;;;25.03;11.37;;;;;;;-141.97;100.00;47888.13;5055950;28;20173;-85
2023/01/29 07:04:20;;;;;;;25.73;14.00;;;;;;;-141.97;100.00;47920.81;5073027;28;20251;-85
2023/01/29 07:06:46;;;;;;;28.67;12.87;;;;;;;-141.97;100.00;47861.22;5053231;28;20638;-85
2023/01/29 07:09:12;;;;;;;17.40;8.33;;;;;;;-141.97;100.00;47788.19;5054144;28;20218;-85
2023/01/29 07:11:38;;;;;;;17.40;8.77;;;;;;;-141.97;100.00;47838.16;5053501;28;20626;-85
2023/01/29 07:14:04;;;;;;;13.23;6.47;;;;;;;-141.97;100.00;47903.50;5072486;28;20411;-85
2023/01/29 07:16:30;;;;;;;15.53;7.77;;;;;;;-141.97;100.00;47830.47;5072738;28;20688;-85
2023/01/29 07:18:56;;;;;;;16.10;7.53;;;;;;;-141.97;100.00;47920.81;5070869;28;20411;-86
2023/01/29 07:21:21;;;;;;;12.67;6.33;;;;;;;-141.97;100.00;47901.59;5071332;28;20199;-85
2023/01/29 07:23:47;;;;;;;21.07;10.13;;;;;;;-141.97;100.00;47878.53;5074539;28;20295;-85
2023/01/29 07:26:12;;;;;;;17.03;8.53;;;;;;;-141.97;100.00;47849.69;5075398;28;20248;-85
2023/01/29 07:28:38;;;;;;;12.53;7.17;;;;;;;-141.97;100.00;47838.16;5075758;28;20169;-87
2023/01/29 07:31:04;;;;;;;11.93;6.23;;;;;;;-141.97;100.00;47932.34;5075453;28;20684;-86
2023/01/29 07:33:30;;;;;;;12.30;6.57;;;;;;;-141.97;100.00;47863.13;5074691;28;20421;-86
2023/01/29 07:35:55;;;;;;;13.53;7.07;;;;;;;-141.97;100.00;47878.53;5075675;28;21015;-85
2023/01/29 07:38:21;;;;;;;10.60;5.73;;;;;;;-141.97;100.00;47893.91;5056639;28;20169;-85
2023/01/29 07:40:46;;;;;;;13.20;6.00;;;;;;;-141.97;100.00;47832.38;5056509;28;20200;-84
2023/01/29 07:43:12;;;;;;;8.27;4.33;;;;;;;-141.97;100.00;47897.75;5075105;28;20169;-84
2023/01/29 07:45:38;;;;;;;9.77;5.23;;;;;;;-141.97;100.00;47876.59;5074728;28;20662;-86
2023/01/29 07:48:06;;;;;;;12.73;6.73;;;;;;;-141.97;100.00;47934.25;5074709;28;20587;-86
2023/01/29 07:50:33;;;;;;;19.43;10.67;;;;;;;-141.97;100.00;47872.75;5074681;28;20406;-85
2023/01/29 07:52:59;;;;;;;13.03;7.20;;;;;;;-141.97;100.00;47897.75;5074587;28;20464;-85
2023/01/29 07:55:25;;;;;;;13.30;6.90;;;;;;;-141.97;100.00;47915.03;5074352;28;20421;-85
2023/01/29 07:57:59;;;;;;;12.30;5.77;;;;;;;-141.97;100.00;47842.00;5074406;28;20407;-86
2023/01/29 08:00:24;;;;;;;15.57;7.13;;;;;;;-141.97;100.00;47828.53;5074093;28;20266;-84
2023/01/29 08:02:50;;;;;;;18.07;8.27;;;;;;;-141.97;100.00;47888.13;5056157;28;20505;-84
2023/01/29 08:05:15;;;;;;;17.87;9.40;;;;;;;-141.97;100.00;47888.13;5074302;28;20591;-86
2023/01/29 08:07:41;;;;;;;14.40;7.47;;;;;;;-141.97;100.00;47953.50;5055857;28;20169;-84
2023/01/29 08:10:06;;;;;;;17.40;9.30;;;;;;;-141.97;100.00;47861.22;5055950;28;20168;-87
2023/01/29 08:12:32;;;;;;;22.13;10.10;;;;;;;-141.97;100.00;47845.84;5074097;28;20195;-87
2023/01/29 08:14:57;;;;;;;19.27;8.93;;;;;;;-141.97;100.00;47872.75;5074306;28;20175;-85
2023/01/29 08:17:23;;;;;;;29.30;13.87;;;;;;;-141.97;100.00;47915.03;5075458;28;20184;-86
2023/01/29 08:19:48;;;;;;;16.37;8.53;;;;;;;-141.97;100.00;47870.81;5074055;28;20185;-86
2023/01/29 08:22:15;;;;;;;39.17;20.50;;;;;;;-141.97;100.00;47891.97;5073692;28;20161;-86
2023/01/29 08:24:41;;;;;;;18.90;10.70;;;;;;;-141.97;100.00;47911.19;5073677;28;20216;-85
2023/01/29 08:27:06;;;;;;;19.40;10.93;;;;;;;-141.97;100.00;47899.66;5074059;28;20493;-85
2023/01/29 08:29:32;;;;;;;19.07;10.60;;;;;;;-141.97;100.00;47924.66;5075901;28;20179;-85
2023/01/29 08:31:58;;;;;;;30.30;15.97;;;;;;;-141.97;100.00;47909.28;5072247;28;20208;-83
2023/01/29 08:34:23;;;;;;;21.33;10.57;;;;;;;-141.97;100.00;47953.50;5055010;28;20157;-85
2023/01/29 08:36:48;;;;;;;19.10;10.30;;;;;;;-141.97;100.00;47784.34;5083753;28;20539;-85
2023/01/29 08:39:14;;;;;;;20.87;11.17;;;;;;;-141.97;100.00;47938.09;5085705;28;20200;-85
2023/01/29 08:41:39;;;;;;;26.37;12.37;;;;;;;-141.97;100.00;47903.50;5080974;28;20640;-85
2023/01/29 08:44:05;;;;;;;15.13;7.50;;;;;;;-141.97;100.00;47943.88;5077936;28;20199;-85
2023/01/29 08:46:30;;;;;;;17.27;7.13;;;;;;;-141.97;100.00;47865.06;5078166;28;20714;-85
2023/01/29 08:48:56;;;;;;;18.50;10.07;;;;;;;-141.97;100.00;47865.06;5075519;28;20157;-85
2023/01/29 08:51:24;;;;;;;11.57;7.33;;;;;;;-141.97;100.00;47915.03;5076644;28;20233;-85
2023/01/29 08:53:49;;;;;;;15.63;8.53;;;;;;;-141.97;100.00;47818.94;5076476;28;20157;-86
2023/01/29 08:56:15;;;;;;;18.20;9.50;;;;;;;-141.97;100.00;47949.66;5071928;28;20983;-85
2023/01/29 08:58:41;;;;;;;17.40;9.63;;;;;;;-141.97;100.00;47870.81;5073797;28;20167;-85
2023/01/29 09:01:08;;;;;;;13.77;7.63;;;;;;;-141.97;100.00;47863.13;5077292;28;20191;-85
2023/01/29 09:03:34;;;;;;;19.77;9.20;;;;;;;-141.97;100.00;47891.97;5088392;28;20167;-85
2023/01/29 09:05:59;;;;;;;13.33;7.80;;;;;;;-141.97;100.00;47815.09;5086511;28;20399;-85
2023/01/29 09:08:25;;;;;;;18.33;8.87;;;;;;;-141.97;100.00;47890.06;5079629;28;20168;-85
2023/01/29 09:10:50;;;;;;;16.10;7.43;;;;;;;-141.97;100.00;47776.63;5079529;28;20157;-85
2023/01/29 09:13:15;;;;;;;45.10;15.87;;;;;;;-141.97;100.00;47820.84;5075460;28;21126;-85
2023/01/29 09:15:41;;;;;;;21.10;9.87;;;;;;;-141.97;100.00;47905.44;5074080;28;20172;-86
2023/01/29 09:18:06;;;;;;;26.40;11.00;;;;;;;-141.97;100.00;47915.03;5073960;28;20165;-85
2023/01/29 09:20:32;;;;;;;16.03;6.93;;;;;;;-141.97;100.00;47872.75;5073168;28;20675;-85
2023/01/29 09:23:02;;;;;;;19.07;9.13;;;;;;;-141.97;100.00;47888.13;5073014;28;20240;-85
2023/01/29 09:25:27;;;;;;;16.17;8.47;;;;;;;-141.97;100.00;47957.34;5072855;28;20251;-85
2023/01/29 09:27:53;;;;;;;14.93;7.57;;;;;;;-141.97;100.00;47845.84;5073427;28;20493;-84
2023/01/29 09:30:18;;;;;;;26.20;12.70;;;;;;;-141.97;100.00;47903.50;5074589;28;20165;-84
2023/01/29 09:32:43;;;;;;;35.90;16.40;;;;;;;-141.97;100.00;47895.81;5055665;28;20249;-85
2023/01/29 09:35:09;;;;;;;19.40;10.30;;;;;;;-141.97;100.00;47920.81;5073082;28;20171;-86
2023/01/29 09:37:34;;;;;;;25.73;13.33;;;;;;;-141.97;100.00;47963.09;5072753;28;20169;-86
2023/01/29 09:40:00;;;;;;;13.53;7.27;;;;;;;-141.97;100.00;47907.34;5072826;28;20188;-86
2023/01/29 09:42:41;;;;;;;19.80;10.50;;;;;;;-141.97;100.00;47895.81;5071403;28;20171;-85
2023/01/29 09:45:15;;;;;;;13.87;7.33;;;;;;;-141.97;100.00;47863.13;5071470;28;20157;-87
2023/01/29 09:47:41;;;;;;;15.63;8.90;;;;;;;-141.97;100.00;47886.22;5072302;28;20426;-85
2023/01/29 09:50:20;;;;;;;21.37;12.80;;;;;;;-141.97;100.00;47874.69;5072360;28;20541;-84
2023/01/29 09:52:57;;;;;;;28.90;12.27;;;;;;;-141.97;100.00;47857.38;5072657;28;20261;-85
2023/01/29 09:55:34;;;;;;;15.10;7.90;;;;;;;-141.97;100.00;47882.38;5071802;28;20403;-85
2023/01/29 09:58:22;;;;;;;12.90;6.90;;;;;;;-141.97;100.00;47753.56;5071886;28;20391;-85
2023/01/29 10:01:15;;;;;;;20.23;10.13;;;;;;;-141.97;100.00;47834.31;4976911;28;20470;-85
2023/01/29 10:04:18;;;;;;;27.33;12.30;;;;;;;-141.97;100.00;47913.13;4976155;28;20415;-85
2023/01/29 10:07:38;;;;;;;31.07;17.40;;;;;;;-141.97;100.00;47863.13;4975877;28;20514;-85
2023/01/29 10:10:11;;;;;;;18.73;10.03;;;;;;;-141.97;100.00;47915.03;4937365;28;20449;-85
2023/01/29 10:13:14;;;;;;;23.60;12.07;;;;;;;-141.97;100.00;47895.81;4937514;28;20426;-85
2023/01/29 10:15:46;;;;;;;16.50;8.90;;;;;;;-141.97;100.00;47886.22;4938298;29;20429;-86
2023/01/29 10:18:42;;;;;;;22.60;12.83;;;;;;;-141.97;100.00;47895.81;4934913;29;20522;-85
2023/01/29 10:21:31;;;;;;;14.47;8.37;;;;;;;-141.97;100.00;47926.56;4932633;29;20464;-85
2023/01/29 10:24:03;;;;;;;19.73;9.67;;;;;;;-141.97;100.00;47843.91;4933059;29;20640;-84
2023/01/29 10:26:30;;;;;;;18.37;10.43;;;;;;;-141.97;100.00;47949.66;4932821;29;20493;-84
2023/01/29 10:28:58;;;;;;;23.13;10.70;;;;;;;-141.97;100.00;47842.00;4932021;29;20772;-84
2023/01/29 10:31:31;;;;;;;18.50;9.27;;;;;;;-141.97;100.00;47901.59;4932181;29;20527;-86
2023/01/29 10:34:04;;;;;;;60.47;31.90;;;;;;;-141.97;100.00;47842.00;4932440;29;20425;-85
2023/01/29 10:36:37;;;;;;;12.50;6.03;;;;;;;-141.97;100.00;47903.50;4932169;29;20413;-85
2023/01/29 10:39:02;;;;;;;14.30;7.70;;;;;;;-141.97;100.00;47874.69;5009639;28;20423;-85
2023/01/29 10:41:58;;;;;;;15.47;7.60;;;;;;;-141.97;100.00;47876.59;5009605;28;20405;-86
2023/01/29 10:44:36;;;;;;;10.57;6.87;;;;;;;-141.97;100.00;47899.66;5048560;28;20192;-86
2023/01/29 10:47:20;;;;;;;16.97;9.10;;;;;;;-141.97;100.00;47915.03;5071295;28;20411;-85
2023/01/29 10:49:56;;;;;;;64.50;24.13;;;;;;;-141.97;100.00;47893.91;5052955;28;20780;-85
2023/01/29 10:52:56;;;;;;;50.93;20.20;;;;;;;-141.97;100.00;47868.91;5071335;28;20399;-86
2023/01/29 10:56:05;;;;;;;25.20;11.63;;;;;;;-141.97;100.00;47876.59;5071140;28;20386;-85
2023/01/29 10:58:58;;;;;;;180.77;64.50;;;;;;;-141.97;100.00;47915.03;5013588;28;20557;-85
2023/01/29 11:01:25;;;;;;;21.63;10.73;;;;;;;-141.97;100.00;47865.06;5016084;28;20412;-85
2023/01/29 11:04:02;;;;;;;35.27;16.17;;;;;;;-141.97;100.00;47880.44;5015877;28;20517;-84
2023/01/29 11:06:33;;;;;;;28.73;13.97;;;;;;;-141.97;100.00;47922.72;4996682;28;20409;-85
2023/01/29 11:09:11;;;;;;;56.73;24.03;;;;;;;-141.97;100.00;47870.81;5013229;28;20903;-84
2023/01/29 11:11:55;;;;;;;23.63;11.40;;;;;;;-141.97;100.00;47842.00;5013305;28;20420;-87
2023/01/29 11:14:27;;;;;;;25.90;14.23;;;;;;;-141.97;100.00;47855.44;5012689;28;20943;-84
2023/01/29 11:16:53;;;;;;;17.13;9.30;;;;;;;-141.97;100.00;47880.44;5012894;28;20996;-84
2023/01/29 11:19:40;;;;;;;14.73;9.50;;;;;;;-141.97;100.00;47863.13;4996256;28;20457;-84
2023/01/29 11:22:11;;;;;;;14.50;8.30;;;;;;;-141.97;100.00;47911.19;5012574;28;20194;-86
2023/01/29 11:24:37;;;;;;;36.53;20.20;;;;;;;-141.97;100.00;47884.28;5012695;28;20493;-86
2023/01/29 11:27:14;;;;;;;20.90;12.10;;;;;;;-141.97;100.00;47782.41;5013432;28;20418;-84
2023/01/29 11:29:45;;;;;;;25.30;12.77;;;;;;;-141.97;100.00;47947.72;5013124;28;20244;-88
2023/01/29 11:32:33;;;;;;;23.37;12.33;;;;;;;-141.97;100.00;47899.66;5014574;28;20410;-85
2023/01/29 11:35:13;;;;;;;15.93;8.97;;;;;;;-141.97;100.00;47880.44;5046718;28;20531;-86
2023/01/29 11:37:41;;;;;;;19.53;9.73;;;;;;;-141.97;100.00;47930.41;5074651;28;20890;-86
2023/01/29 11:40:19;;;;;;;17.17;9.33;;;;;;;-141.97;100.00;47899.66;5074693;28;20544;-84
2023/01/29 11:42:45;;;;;;;17.37;9.87;;;;;;;-141.97;100.00;47899.66;5056897;28;20255;-85